Flight Track Log - Related Links

Times and Time Zones

All times are in EDT time to prevent confusion due to time zone crossing. See the N604DF flight status page for this flight to view local times or setup timezone preferences in your user account.

Time Position Orientation Groundspeed Altitude Reporting Facility
EDT Latitude Longitude Course Direction KTS MPH feet Rate Location/Type
Wed 03:24:53 PM 29.6338 -95.2864 200° South 187 215 900  Level FlightAware ADS-B
Wed 03:24:58 PM 29.6296 -95.2870 187° South 201 231 1,100 2,250 Climbing FlightAware ADS-B
Wed 03:25:01 PM 29.6267 -95.2868 177° South 206 237 1,200 3,200 Climbing FlightAware ADS-B
Wed 03:25:13 PM 29.6147 -95.2817 160° South 232 267 1,900 3,158 Climbing FlightAware ADS-B
Wed 03:25:20 PM 29.6093 -95.2768 142° Southeast 245 282 2,200 3,273 Climbing FlightAware ADS-B
Wed 03:25:24 PM 29.6056 -95.2720 132° Southeast 253 291 2,500 3,750 Climbing FlightAware ADS-B
Wed 03:25:28 PM 29.6033 -95.2676 121° Southeast 256 295 2,700 3,273 Climbing FlightAware ADS-B
Wed 03:25:35 PM 29.6004 -95.2584 110° East 256 295 3,100 3,231 Climbing FlightAware ADS-B
Wed 03:25:41 PM 29.5998 -95.2503 95° East 256 295 3,400 3,273 Climbing FlightAware ADS-B
Wed 03:25:46 PM 29.6005 -95.2438 83° East 257 296 3,700 3,333 Climbing FlightAware ADS-B
Wed 03:25:50 PM 29.6018 -95.2386 74° East 258 297 3,900 2,727 Climbing FlightAware ADS-B
Wed 03:25:57 PM 29.6060 -95.2299 61° Northeast 259 298 4,200 1,756 Climbing FlightAware ADS-B
Wed 03:26:31 PM 29.6440 -95.2154 18° North 281 323 5,100 1,459 Climbing FlightAware ADS-B
Wed 03:26:34 PM 29.6478 -95.2164 347° North 284 327 5,100  Level FlightAware ADS-B
Wed 03:26:41 PM 29.6565 -95.2191 345° North 289 333 5,100 462 Level FlightAware ADS-B
Wed 03:26:47 PM 29.6636 -95.2225 337° Northwest 283 326 5,200 2,000 Climbing FlightAware ADS-B
Wed 03:26:50 PM 29.6672 -95.2248 331° Northwest 280 322 5,400 3,750 Climbing FlightAware ADS-B
Wed 03:26:55 PM 29.6716 -95.2282 326° Northwest 270 311 5,700 3,750 Climbing FlightAware ADS-B
Wed 03:26:58 PM 29.6749 -95.2312 322° Northwest 265 305 5,900 3,818 Climbing FlightAware ADS-B
Wed 03:27:06 PM 29.6822 -95.2384 319° Northwest 261 300 6,400 3,750 Climbing FlightAware ADS-B
Wed 03:27:22 PM 29.6962 -95.2539 316° Northwest 264 304 7,400 3,522 Climbing FlightAware ADS-B
Wed 03:27:52 PM 29.7232 -95.2858 314° West 285 328 9,100 3,120 Climbing FlightAware ADS-B
Wed 03:28:37 PM 29.7660 -95.3389 313° West 322 371 11,300 2,889 Climbing FlightAware ADS-B
Wed 03:28:46 PM 29.7767 -95.3487 325° Northwest 327 376 11,700 3,000 Climbing FlightAware ADS-B
Wed 03:28:51 PM 29.7831 -95.3526 332° Northwest 329 379 12,000 3,273 Climbing FlightAware ADS-B
Wed 03:28:57 PM 29.7921 -95.3562 341° North 332 382 12,300 3,000 Climbing FlightAware ADS-B
Wed 03:31:07 PM 30.0017 -95.3898 352° North 360 414 18,800 2,755 Climbing FlightAware ADS-B
Wed 03:32:50 PM 30.1742 -95.4167 352° North 377 434 23,000 2,328 Climbing FlightAware ADS-B
Wed 03:33:21 PM 30.2296 -95.4253 352° North 388 447 24,000 952 Climbing FlightAware ADS-B
Wed 03:33:53 PM 30.2876 -95.4344 352° North 418 481 24,000  Level FlightAware ADS-B
Wed 03:34:56 PM 30.4170 -95.4546 352° North 455 524 24,000  Level FlightAware ADS-B
Wed 03:35:28 PM 30.4825 -95.4648 352° North 456 525 24,000  Level FlightAware ADS-B
Wed 03:36:16 PM 30.5831 -95.4865 349° North 456 525 24,000  Level FlightAware ADS-B
Wed 03:36:46 PM 30.6459 -95.5006 349° North 452 520 24,000  Level FlightAware ADS-B
Wed 03:42:00 PM 31.2819 -95.6449 349° North 444 511 24,000  Level FlightAware ADS-B
Wed 03:43:01 PM 31.3984 -95.6915 334° Northwest 435 501 24,000  Level FlightAware ADS-B
Wed 03:43:57 PM 31.4880 -95.7510 330° Northwest 434 499 24,000  Level FlightAware ADS-B
Wed 03:44:15 PM 31.5287 -95.7774 331° Northwest 434 499 24,000  Level FlightAware ADS-B
Wed 03:46:15 PM 31.7383 -95.9170 330° Northwest 435 501 24,000 -62 Level FlightAware ADS-B
Wed 03:47:28 PM 31.8673 -96.0034 330° Northwest 441 507 23,800 -679 Descending FlightAware ADS-B
Wed 03:48:01 PM 31.9254 -96.0423 330° Northwest 447 514 22,800 -2,368 Descending FlightAware ADS-B
Wed 03:48:44 PM 32.0003 -96.0928 330° Northwest 426 490 20,800 -2,795 Descending FlightAware ADS-B
Wed 03:49:14 PM 32.0516 -96.1272 330° Northwest 406 467 19,400 -2,710 Descending FlightAware ADS-B
Wed 03:49:46 PM 32.1029 -96.1620 330° Northwest 399 459 18,000 -2,625 Descending FlightAware ADS-B
Wed 03:50:18 PM 32.1536 -96.1962 330° Northwest 399 459 16,600 -2,571 Descending FlightAware ADS-B
Wed 03:50:49 PM 32.2031 -96.2285 331° Northwest 400 460 15,300 -2,571 Descending FlightAware ADS-B
Wed 03:51:28 PM 32.2688 -96.2673 333° Northwest 398 458 13,600 -2,516 Descending FlightAware ADS-B
Wed 03:52:22 PM 32.3490 -96.3160 333° Northwest 355 409 11,400 -2,298 Descending FlightAware ADS-B
Wed 03:53:02 PM 32.4040 -96.3490 333° Northwest 317 365 10,000 -1,971 Descending FlightAware ADS-B
Wed 03:53:32 PM 32.4400 -96.3710 333° Northwest 297 342 9,100 -1,091 Descending FlightAware ADS-B
Wed 03:53:57 PM 32.4720 -96.3900 333° Northwest 281 323 9,000 -150 Descending FlightAware ADS-B
Wed 03:54:12 PM 32.4900 -96.4010 333° Northwest 279 321 9,000 -933 Level FlightAware ADS-B
Wed 03:54:42 PM 32.5240 -96.4220 332° Northwest 283 326 8,300 -1,600 Descending FlightAware ADS-B
Wed 03:54:57 PM 32.5440 -96.4330 335° Northwest 287 330 7,800 -1,950 Descending FlightAware ADS-B
Wed 03:55:22 PM 32.5710 -96.4500 332° Northwest 288 331 7,000 -1,855 Descending FlightAware ADS-B
Wed 03:55:52 PM 32.6070 -96.4720 333° Northwest 289 333 6,100 -1,800 Descending FlightAware ADS-B
Wed 03:56:22 PM 32.6430 -96.4930 334° Northwest 288 331 5,200 -1,200 Descending FlightAware ADS-B
Wed 03:56:47 PM 32.6720 -96.5160 326° Northwest 289 333 5,000 -300 Descending FlightAware ADS-B
Wed 03:57:02 PM 32.6860 -96.5290 322° Northwest 290 334 5,000  Level FlightAware ADS-B
Wed 03:57:32 PM 32.7170 -96.5600 320° Northwest 281 323 5,000  Level FlightAware ADS-B
Wed 03:57:57 PM 32.7430 -96.5850 321° Northwest 289 333 5,000 -109 Level FlightAware ADS-B
Wed 03:58:27 PM 32.7730 -96.6180 317° Northwest 293 337 4,900 -545 Descending FlightAware ADS-B
Wed 03:58:52 PM 32.7970 -96.6450 317° Northwest 288 331 4,500 -982 Descending FlightAware ADS-B
Wed 03:59:22 PM 32.8260 -96.6780 316° Northwest 278 320 4,000 -545 Descending FlightAware ADS-B
Wed 03:59:47 PM 32.8500 -96.7040 318° Northwest 279 321 4,000  Level FlightAware ADS-B
Wed 04:00:02 PM 32.8630 -96.7190 316° Northwest 280 322 4,000 -133 Level FlightAware ADS-B
Wed 04:00:32 PM 32.8930 -96.7520 317° Northwest 279 321 3,900 -545 Descending FlightAware ADS-B
Wed 04:00:57 PM 32.9150 -96.7770 316° Northwest 260 299 3,500 -1,050 Descending FlightAware ADS-B
Wed 04:01:12 PM 32.9270 -96.7900 318° Northwest 248 285 3,200 -800 Descending FlightAware ADS-B
Wed 04:01:27 PM 32.9370 -96.8060 307° West 223 257 3,100 -400 Descending FlightAware ADS-B
Wed 04:01:42 PM 32.9400 -96.8230 282° West 209 241 3,000 -200 Descending FlightAware ADS-B
Wed 04:01:57 PM 32.9420 -96.8400 278° West 204 235 3,000 -200 Level FlightAware ADS-B
Wed 04:02:12 PM 32.9420 -96.8570 270° West 207 238 2,900 -750 Descending FlightAware ADS-B
Wed 04:02:37 PM 32.9400 -96.8840 265° West 191 220 2,500 -900 Descending FlightAware ADS-B
Wed 04:02:52 PM 32.9360 -96.8980 251° West 191 220 2,300 -800 Descending FlightAware ADS-B
Wed 04:03:07 PM 32.9240 -96.9080 215° Southwest 195 224 2,100 -600 Descending FlightAware ADS-B
Wed 04:03:22 PM 32.9120 -96.9110 192° South 190 219 2,000 -240 Descending FlightAware ADS-B
Wed 04:03:32 PM 32.9030 -96.9120 185° South 176 203 2,000 -450 Level FlightAware ADS-B
Wed 04:04:02 PM 32.8830 -96.9050 164° South 149 171 1,700 -462 Descending FlightAware ADS-B
Wed 04:04:37 PM 32.8700 -96.8840 126° Southeast 144 166 1,500 -343 Descending FlightAware ADS-B
Wed 04:12:00 PM 32.8471 -96.8518 301° West  Level Estimated
Wed 04:13:00 PM 32.8471 -96.8518 301° West  Level Estimated

Login

Don't have an account? Register now (free) for customized features, flight alerts, and more!